Time,TemperatureF,DewpointF,PressureIn,WindDirection,WindDirectionDegrees,WindSpeedMPH,WindSpeedGustMPH,Humidity,HourlyPrecipIn,Conditions,Clouds,dailyrainin,SoftwareType,DateUTC
2013-04-11 00:00:00,65.2,63.7,30.01,ESE,111,0.0,0.0,95,0.00,,,0.00,Wunderground v.1.15,2013-04-11 04:00:00,
2013-04-11 00:03:00,65.2,64.0,30.01,ESE,111,0.0,0.0,96,0.00,,,0.00,Wunderground v.1.15,2013-04-11 04:03:00,
2013-04-11 00:05:00,65.2,64.0,30.01,ESE,111,0.0,0.0,96,0.00,,,0.00,Wunderground v.1.15,2013-04-11 04:05:00,
2013-04-11 00:11:00,65.2,64.0,30.01,ESE,111,0.0,0.0,96,0.00,,,0.00,Wunderground v.1.15,2013-04-11 04:11:00,
2013-04-11 00:17:00,65.3,64.1,30.00,ESE,111,0.0,0.0,96,0.00,,,0.00,Wunderground v.1.15,2013-04-11 04:17:00,
2013-04-11 00:22:00,65.3,64.1,30.00,ESE,111,0.0,0.0,96,0.00,,,0.00,Wunderground v.1.15,2013-04-11 04:22:00,
2013-04-11 00:27:00,65.3,64.1,30.00,ESE,111,0.0,0.0,96,0.00,,,0.00,Wunderground v.1.15,2013-04-11 04:27:00,
2013-04-11 00:33:00,65.3,64.1,30.00,ESE,111,0.0,0.0,96,0.00,,,0.00,Wunderground v.1.15,2013-04-11 04:33:00,
2013-04-11 00:39:00,65.2,64.0,30.00,ESE,111,0.0,0.0,96,0.00,,,0.00,Wunderground v.1.15,2013-04-11 04:39:00,
2013-04-11 00:44:00,65.2,64.3,30.00,ESE,111,0.0,0.0,97,0.00,,,0.00,Wunderground v.1.15,2013-04-11 04:44:00,
2013-04-11 00:50:00,65.2,64.3,30.00,ESE,111,0.0,0.0,97,0.00,,,0.00,Wunderground v.1.15,2013-04-11 04:50:00,
2013-04-11 00:56:00,65.0,64.1,30.00,ESE,111,0.0,0.0,97,0.00,,,0.00,Wunderground v.1.15,2013-04-11 04:56:00,
2013-04-11 01:02:00,65.2,64.3,30.00,ESE,111,0.0,0.0,97,0.00,,,0.00,Wunderground v.1.15,2013-04-11 05:02:00,
2013-04-11 01:08:00,65.2,64.3,30.00,ESE,111,0.0,0.0,97,0.00,,,0.00,Wunderground v.1.15,2013-04-11 05:08:00,
2013-04-11 01:13:00,65.0,64.1,30.00,ESE,111,0.0,0.0,97,0.00,,,0.00,Wunderground v.1.15,2013-04-11 05:13:00,
2013-04-11 01:18:00,65.0,64.1,29.99,ESE,111,0.0,0.0,97,0.00,,,0.00,Wunderground v.1.15,2013-04-11 05:18:00,
2013-04-11 01:24:00,64.8,63.9,29.99,ESE,111,0.0,0.0,97,0.00,,,0.00,Wunderground v.1.15,2013-04-11 05:24:00,
2013-04-11 01:30:00,64.7,63.8,30.00,ESE,111,0.0,0.0,97,0.00,,,0.00,Wunderground v.1.15,2013-04-11 05:30:00,
2013-04-11 01:37:00,64.5,63.6,30.00,ESE,111,0.0,0.0,97,0.00,,,0.00,Wunderground v.1.15,2013-04-11 05:37:00,
2013-04-11 01:43:00,64.3,63.4,30.00,ESE,111,0.0,0.0,97,0.00,,,0.00,Wunderground v.1.15,2013-04-11 05:43:00,
2013-04-11 01:48:00,64.2,63.3,29.99,ESE,111,0.0,0.0,97,0.00,,,0.00,Wunderground v.1.15,2013-04-11 05:48:00,
2013-04-11 01:54:00,64.2,63.3,29.99,ESE,111,0.0,0.0,97,0.00,,,0.00,Wunderground v.1.15,2013-04-11 05:54:00,
2013-04-11 01:59:00,64.0,63.1,29.99,ESE,111,0.0,0.0,97,0.00,,,0.00,Wunderground v.1.15,2013-04-11 05:59:00,
2013-04-11 02:05:00,63.9,63.0,29.99,ESE,111,0.0,0.0,97,0.00,,,0.00,Wunderground v.1.15,2013-04-11 06:05:00,
2013-04-11 02:10:00,63.7,62.8,29.99,ESE,111,0.0,0.0,97,0.00,,,0.00,Wunderground v.1.15,2013-04-11 06:10:00,
2013-04-11 02:17:00,63.5,62.6,29.98,ESE,111,0.0,0.0,97,0.00,,,0.00,Wunderground v.1.15,2013-04-11 06:17:00,
2013-04-11 02:22:00,63.4,62.5,29.98,ESE,111,0.0,0.0,97,0.00,,,0.00,Wunderground v.1.15,2013-04-11 06:22:00,
2013-04-11 02:28:00,63.4,62.5,29.98,ESE,111,0.0,0.0,97,0.00,,,0.00,Wunderground v.1.15,2013-04-11 06:28:00,
2013-04-11 02:33:00,63.2,62.3,29.98,ESE,111,0.0,0.0,97,0.00,,,0.00,Wunderground v.1.15,2013-04-11 06:33:00,
2013-04-11 02:39:00,63.2,62.3,29.98,ESE,111,0.0,0.0,97,0.00,,,0.00,Wunderground v.1.15,2013-04-11 06:39:00,
2013-04-11 02:44:00,63.1,62.2,29.98,ESE,111,0.0,0.0,97,0.00,,,0.00,Wunderground v.1.15,2013-04-11 06:44:00,
2013-04-11 02:49:00,63.1,62.2,29.98,ESE,111,0.0,0.0,97,0.00,,,0.00,Wunderground v.1.15,2013-04-11 06:49:00,
2013-04-11 02:55:00,62.9,62.0,29.98,ESE,111,0.0,0.0,97,0.00,,,0.00,Wunderground v.1.15,2013-04-11 06:55:00,
2013-04-11 03:00:00,62.9,62.0,29.98,ESE,111,0.0,0.0,97,0.00,,,0.00,Wunderground v.1.15,2013-04-11 07:00:00,
2013-04-11 03:07:00,62.7,61.8,29.98,ESE,111,0.0,0.0,97,0.00,,,0.00,Wunderground v.1.15,2013-04-11 07:07:00,
2013-04-11 03:13:00,62.7,61.8,29.98,ESE,111,0.0,0.0,97,0.00,,,0.00,Wunderground v.1.15,2013-04-11 07:13:00,
2013-04-11 03:18:00,62.7,62.1,29.98,ESE,111,0.0,0.0,98,0.00,,,0.00,Wunderground v.1.15,2013-04-11 07:18:00,
2013-04-11 03:24:00,62.7,62.1,29.98,ESE,111,0.0,0.0,98,0.00,,,0.00,Wunderground v.1.15,2013-04-11 07:24:00,
2013-04-11 03:30:00,62.7,62.1,29.98,ESE,111,0.0,0.0,98,0.00,,,0.00,Wunderground v.1.15,2013-04-11 07:30:00,
2013-04-11 03:36:00,62.6,62.0,29.98,ESE,111,0.0,0.0,98,0.00,,,0.00,Wunderground v.1.15,2013-04-11 07:36:00,
2013-04-11 03:41:00,62.6,62.0,29.98,ESE,111,0.0,0.0,98,0.00,,,0.00,Wunderground v.1.15,2013-04-11 07:41:00,
2013-04-11 03:47:00,62.6,62.0,29.98,ESE,111,0.0,0.0,98,0.00,,,0.00,Wunderground v.1.15,2013-04-11 07:47:00,
2013-04-11 03:53:00,62.6,62.0,29.98,ESE,111,0.0,0.0,98,0.00,,,0.00,Wunderground v.1.15,2013-04-11 07:53:00,
2013-04-11 03:59:00,62.4,61.8,29.98,ESE,111,0.0,0.0,98,0.00,,,0.00,Wunderground v.1.15,2013-04-11 07:59:00,
2013-04-11 04:04:00,62.4,61.8,29.98,ESE,111,0.0,0.0,98,0.00,,,0.00,Wunderground v.1.15,2013-04-11 08:04:00,
2013-04-11 04:09:00,62.4,61.8,29.98,ESE,111,0.0,0.0,98,0.00,,,0.00,Wunderground v.1.15,2013-04-11 08:09:00,
2013-04-11 04:14:00,62.4,61.8,29.98,ESE,111,0.0,0.0,98,0.00,,,0.00,Wunderground v.1.15,2013-04-11 08:14:00,
2013-04-11 04:19:00,62.3,61.7,29.98,ESE,111,0.0,0.0,98,0.00,,,0.00,Wunderground v.1.15,2013-04-11 08:19:00,
2013-04-11 04:24:00,62.3,61.7,29.98,ESE,111,0.0,0.0,98,0.00,,,0.00,Wunderground v.1.15,2013-04-11 08:24:00,
2013-04-11 04:29:00,62.3,61.7,29.98,ESE,111,0.0,0.0,98,0.00,,,0.00,Wunderground v.1.15,2013-04-11 08:29:00,
2013-04-11 04:35:00,62.3,61.7,29.98,ESE,111,0.0,0.0,98,0.00,,,0.00,Wunderground v.1.15,2013-04-11 08:35:00,
2013-04-11 04:40:00,62.1,61.5,29.98,ESE,111,0.0,0.0,98,0.00,,,0.00,Wunderground v.1.15,2013-04-11 08:40:00,
2013-04-11 04:45:00,62.1,61.5,29.98,ESE,111,0.0,0.0,98,0.00,,,0.00,Wunderground v.1.15,2013-04-11 08:45:00,
2013-04-11 04:51:00,62.1,61.5,29.98,ESE,111,0.0,0.0,98,0.00,,,0.00,Wunderground v.1.15,2013-04-11 08:51:00,
2013-04-11 04:57:00,62.1,61.8,29.98,ESE,111,0.0,0.0,99,0.00,,,0.00,Wunderground v.1.15,2013-04-11 08:57:00,
2013-04-11 05:03:00,62.1,61.8,29.98,ESE,111,0.0,0.0,99,0.00,,,0.00,Wunderground v.1.15,2013-04-11 09:03:00,
2013-04-11 05:09:00,62.1,61.8,29.98,ESE,111,0.0,0.0,99,0.00,,,0.00,Wunderground v.1.15,2013-04-11 09:09:00,
2013-04-11 05:14:00,62.1,61.8,29.98,ESE,111,0.0,0.0,99,0.00,,,0.00,Wunderground v.1.15,2013-04-11 09:14:00,
2013-04-11 05:19:00,62.3,62.0,29.98,ESE,111,0.0,0.0,99,0.00,,,0.00,Wunderground v.1.15,2013-04-11 09:19:00,
2013-04-11 05:25:00,62.4,62.1,29.98,ESE,111,0.0,0.0,99,0.00,,,0.00,Wunderground v.1.15,2013-04-11 09:25:00,
2013-04-11 05:32:00,62.6,62.3,29.98,ESE,111,0.0,0.0,99,0.00,,,0.00,Wunderground v.1.15,2013-04-11 09:32:00,
2013-04-11 05:38:00,62.6,62.3,29.98,ESE,111,0.0,0.0,99,0.00,,,0.00,Wunderground v.1.15,2013-04-11 09:38:00,
2013-04-11 05:44:00,62.6,62.3,29.98,ESE,111,0.0,0.0,99,0.00,,,0.00,Wunderground v.1.15,2013-04-11 09:44:00,
2013-04-11 05:49:00,62.6,62.3,29.97,ESE,111,0.0,0.0,99,0.00,,,0.00,Wunderground v.1.15,2013-04-11 09:49:00,
2013-04-11 05:54:00,62.6,62.3,29.97,ESE,111,0.0,0.0,99,0.00,,,0.00,Wunderground v.1.15,2013-04-11 09:54:00,
2013-04-11 05:59:00,62.4,62.1,29.97,ESE,111,0.0,0.0,99,0.00,,,0.00,Wunderground v.1.15,2013-04-11 09:59:00,
2013-04-11 06:05:00,62.6,62.3,29.98,ESE,111,0.0,0.0,99,0.00,,,0.00,Wunderground v.1.15,2013-04-11 10:05:00,
2013-04-11 06:10:00,62.4,62.1,29.98,ESE,111,0.0,0.0,99,0.00,,,0.00,Wunderground v.1.15,2013-04-11 10:10:00,
2013-04-11 06:15:00,62.6,62.3,29.98,ESE,111,0.0,0.0,99,0.00,,,0.00,Wunderground v.1.15,2013-04-11 10:15:00,
2013-04-11 06:21:00,62.6,62.3,29.98,ESE,111,0.0,0.0,99,0.00,,,0.00,Wunderground v.1.15,2013-04-11 10:21:00,
2013-04-11 06:26:00,62.6,62.3,29.98,ESE,111,0.0,0.0,99,0.00,,,0.00,Wunderground v.1.15,2013-04-11 10:26:00,
2013-04-11 06:32:00,62.6,62.6,29.98,ESE,111,0.0,0.0,100,0.00,,,0.00,Wunderground v.1.15,2013-04-11 10:32:00,
2013-04-11 06:37:00,62.6,62.6,29.98,ESE,111,0.0,0.0,100,0.00,,,0.00,Wunderground v.1.15,2013-04-11 10:37:00,
2013-04-11 06:43:00,62.6,62.6,29.98,ESE,111,0.0,0.0,100,0.00,,,0.00,Wunderground v.1.15,2013-04-11 10:43:00,
2013-04-11 06:48:00,62.6,62.6,29.98,ESE,111,0.0,0.0,100,0.00,,,0.00,Wunderground v.1.15,2013-04-11 10:48:00,
2013-04-11 06:54:00,62.6,62.6,29.98,ESE,111,0.0,0.0,100,0.00,,,0.00,Wunderground v.1.15,2013-04-11 10:54:00,
2013-04-11 06:59:00,62.7,62.7,29.98,ESE,111,0.0,0.0,100,0.00,,,0.00,Wunderground v.1.15,2013-04-11 10:59:00,
2013-04-11 07:04:00,62.7,62.7,29.98,ESE,111,0.0,0.0,100,0.00,,,0.00,Wunderground v.1.15,2013-04-11 11:04:00,
2013-04-11 07:10:00,63.1,63.1,29.98,ESE,111,0.0,0.0,100,0.00,,,0.00,Wunderground v.1.15,2013-04-11 11:10:00,
2013-04-11 07:16:00,63.4,63.4,29.99,ESE,111,0.0,0.0,100,0.00,,,0.00,Wunderground v.1.15,2013-04-11 11:16:00,
2013-04-11 07:22:00,63.5,63.5,29.99,ESE,111,0.0,0.0,100,0.00,,,0.00,Wunderground v.1.15,2013-04-11 11:22:00,
2013-04-11 07:27:00,63.7,63.7,29.99,ESE,111,0.0,0.0,100,0.00,,,0.00,Wunderground v.1.15,2013-04-11 11:27:00,
2013-04-11 07:32:00,63.9,63.9,29.99,ESE,111,0.0,0.0,100,0.00,,,0.00,Wunderground v.1.15,2013-04-11 11:32:00,
2013-04-11 07:37:00,64.3,64.3,29.99,ESE,111,0.0,0.0,100,0.00,,,0.00,Wunderground v.1.15,2013-04-11 11:37:00,
2013-04-11 07:42:00,64.7,64.7,29.99,ESE,111,0.0,0.0,100,0.00,,,0.00,Wunderground v.1.15,2013-04-11 11:42:00,
2013-04-11 07:48:00,65.2,65.2,30.00,ESE,111,0.0,0.0,100,0.00,,,0.00,Wunderground v.1.15,2013-04-11 11:48:00,
2013-04-11 07:54:00,65.8,65.8,30.00,ESE,111,0.0,0.0,100,0.00,,,0.00,Wunderground v.1.15,2013-04-11 11:54:00,
2013-04-11 07:59:00,66.1,66.1,30.00,ESE,111,0.0,0.0,100,0.00,,,0.00,Wunderground v.1.15,2013-04-11 11:59:00,
2013-04-11 08:04:00,66.6,66.6,30.00,ESE,111,0.0,0.0,100,0.00,,,0.00,Wunderground v.1.15,2013-04-11 12:04:00,
2013-04-11 08:10:00,66.8,66.8,30.00,ESE,111,0.0,0.0,100,0.00,,,0.00,Wunderground v.1.15,2013-04-11 12:10:00,
2013-04-11 08:15:00,67.1,67.1,30.00,ESE,111,0.0,0.0,100,0.00,,,0.00,Wunderground v.1.15,2013-04-11 12:15:00,
2013-04-11 08:20:00,67.4,67.4,30.00,ESE,111,0.0,0.0,100,0.00,,,0.00,Wunderground v.1.15,2013-04-11 12:20:00,
2013-04-11 08:26:00,68.1,68.1,30.00,ESE,111,0.0,0.0,100,0.00,,,0.00,Wunderground v.1.15,2013-04-11 12:26:00,
2013-04-11 08:32:00,68.4,68.4,30.00,ESE,111,0.0,0.0,100,0.00,,,0.00,Wunderground v.1.15,2013-04-11 12:32:00,
2013-04-11 08:37:00,68.8,68.8,30.00,ESE,111,0.0,0.0,100,0.00,,,0.00,Wunderground v.1.15,2013-04-11 12:37:00,
2013-04-11 08:43:00,69.3,69.3,30.00,SSW,202,0.0,0.0,100,0.00,,,0.00,Wunderground v.1.15,2013-04-11 12:43:00,
2013-04-11 08:48:00,69.6,69.6,30.00,SE,140,0.0,0.0,100,0.00,,,0.00,Wunderground v.1.15,2013-04-11 12:48:00,
2013-04-11 08:54:00,69.9,69.9,30.00,SE,137,0.0,0.0,100,0.00,,,0.00,Wunderground v.1.15,2013-04-11 12:54:00,
2013-04-11 09:00:00,70.4,70.4,30.00,WSW,243,0.0,0.0,100,0.00,,,0.00,Wunderground v.1.15,2013-04-11 13:00:00,
2013-04-11 09:07:00,71.1,71.1,30.00,South,178,0.0,1.0,100,0.00,,,0.00,Wunderground v.1.15,2013-04-11 13:07:00,
2013-04-11 09:12:00,71.3,70.7,30.00,South,183,0.0,0.0,98,0.00,,,0.00,Wunderground v.1.15,2013-04-11 13:12:00,
2013-04-11 09:18:00,71.6,70.7,30.00,SSW,202,0.0,5.0,97,0.00,,,0.00,Wunderground v.1.15,2013-04-11 13:18:00,
2013-04-11 09:24:00,72.0,70.8,30.00,ENE,75,0.0,1.0,96,0.00,,,0.00,Wunderground v.1.15,2013-04-11 13:24:00,
2013-04-11 09:30:00,72.0,70.5,30.00,WSW,242,0.0,0.0,95,0.00,,,0.00,Wunderground v.1.15,2013-04-11 13:30:00,
2013-04-11 09:35:00,72.3,70.8,30.00,WSW,242,0.0,0.0,95,0.00,,,0.00,Wunderground v.1.15,2013-04-11 13:35:00,
2013-04-11 09:40:00,72.7,70.9,30.00,WSW,242,0.0,0.0,94,0.00,,,0.00,Wunderground v.1.15,2013-04-11 13:40:00,
2013-04-11 09:47:00,73.0,70.9,30.00,WSW,242,0.0,1.0,93,0.00,,,0.00,Wunderground v.1.15,2013-04-11 13:47:00,
2013-04-11 09:52:00,73.2,70.7,30.00,WSW,242,0.0,0.0,92,0.00,,,0.00,Wunderground v.1.15,2013-04-11 13:52:00,
2013-04-11 09:58:00,73.5,70.7,30.00,West,273,0.0,1.0,91,0.00,,,0.00,Wunderground v.1.15,2013-04-11 13:58:00,
2013-04-11 10:04:00,73.7,70.6,30.00,West,273,0.0,1.0,90,0.00,,,0.00,Wunderground v.1.15,2013-04-11 14:04:00,
2013-04-11 10:09:00,73.9,70.8,30.00,WSW,239,0.0,2.0,90,0.00,,,0.00,Wunderground v.1.15,2013-04-11 14:09:00,
2013-04-11 10:14:00,73.9,70.5,30.00,SW,225,0.0,2.0,89,0.00,,,0.00,Wunderground v.1.15,2013-04-11 14:14:00,
2013-04-11 10:20:00,74.0,70.6,30.00,WSW,253,0.0,1.0,89,0.00,,,0.00,Wunderground v.1.15,2013-04-11 14:20:00,
2013-04-11 10:26:00,74.2,70.7,30.00,WSW,253,0.0,1.0,89,0.00,,,0.00,Wunderground v.1.15,2013-04-11 14:26:00,
2013-04-11 10:32:00,74.2,70.4,30.00,WSW,243,0.0,1.0,88,0.00,,,0.00,Wunderground v.1.15,2013-04-11 14:32:00,
2013-04-11 10:38:00,74.4,70.9,30.00,WSW,243,0.0,1.0,89,0.00,,,0.00,Wunderground v.1.15,2013-04-11 14:38:00,
2013-04-11 10:44:00,74.7,70.9,30.00,WSW,249,0.0,1.0,88,0.00,,,0.00,Wunderground v.1.15,2013-04-11 14:44:00,
2013-04-11 10:49:00,75.1,71.0,30.00,WSW,249,0.0,1.0,87,0.00,,,0.00,Wunderground v.1.15,2013-04-11 14:49:00,
2013-04-11 10:55:00,75.3,70.8,30.00,WSW,250,0.0,3.0,86,0.00,,,0.00,Wunderground v.1.15,2013-04-11 14:55:00,
2013-04-11 11:00:00,75.4,70.6,30.00,West,265,1.0,1.0,85,0.00,,,0.00,Wunderground v.1.15,2013-04-11 15:00:00,
2013-04-11 11:06:00,75.8,70.6,30.00,West,265,1.0,2.0,84,0.00,,,0.00,Wunderground v.1.15,2013-04-11 15:06:00,
2013-04-11 11:12:00,76.0,70.8,30.00,West,265,0.0,1.0,84,0.00,,,0.00,Wunderground v.1.15,2013-04-11 15:12:00,
2013-04-11 11:18:00,76.3,70.4,30.00,SW,225,1.0,3.0,82,0.00,,,0.00,Wunderground v.1.15,2013-04-11 15:18:00,
2013-04-11 11:24:00,76.7,70.8,30.00,North,351,1.0,2.0,82,0.00,,,0.00,Wunderground v.1.15,2013-04-11 15:24:00,
2013-04-11 11:30:00,77.6,71.3,30.00,West,262,1.0,1.0,81,0.00,,,0.00,Wunderground v.1.15,2013-04-11 15:30:00,
2013-04-11 11:35:00,77.6,70.6,30.00,WSW,239,1.0,2.0,79,0.00,,,0.00,Wunderground v.1.15,2013-04-11 15:35:00,
2013-04-11 11:40:00,77.6,70.6,30.00,WSW,245,1.0,1.0,79,0.00,,,0.00,Wunderground v.1.15,2013-04-11 15:40:00,
2013-04-11 11:47:00,77.4,70.7,30.00,SSE,149,1.0,2.0,80,0.00,,,0.00,Wunderground v.1.15,2013-04-11 15:47:00,
2013-04-11 11:53:00,77.2,70.5,30.00,WSW,257,1.0,2.0,80,0.00,,,0.00,Wunderground v.1.15,2013-04-11 15:53:00,
2013-04-11 11:59:00,77.2,70.5,30.00,West,265,1.0,2.0,80,0.00,,,0.00,Wunderground v.1.15,2013-04-11 15:59:00,
2013-04-11 12:04:00,77.4,70.4,30.00,WNW,289,1.0,2.0,79,0.00,,,0.00,Wunderground v.1.15,2013-04-11 16:04:00,
2013-04-11 12:10:00,77.6,70.9,30.00,ENE,70,1.0,2.0,80,0.00,,,0.00,Wunderground v.1.15,2013-04-11 16:10:00,
2013-04-11 12:16:00,77.4,70.7,29.99,WSW,249,1.0,3.0,80,0.00,,,0.00,Wunderground v.1.15,2013-04-11 16:16:00,
2013-04-11 12:22:00,77.6,70.9,29.99,WSW,252,1.0,1.0,80,0.00,,,0.00,Wunderground v.1.15,2013-04-11 16:22:00,
2013-04-11 12:27:00,77.6,70.9,29.99,WNW,293,1.0,3.0,80,0.00,,,0.00,Wunderground v.1.15,2013-04-11 16:27:00,
2013-04-11 12:33:00,77.4,70.4,29.98,WSW,243,1.0,1.0,79,0.00,,,0.00,Wunderground v.1.15,2013-04-11 16:33:00,
2013-04-11 12:39:00,77.4,70.7,29.98,WNW,296,1.0,2.0,80,0.00,,,0.00,Wunderground v.1.15,2013-04-11 16:39:00,
2013-04-11 12:44:00,77.6,70.9,29.98,SW,225,1.0,5.0,80,0.00,,,0.00,Wunderground v.1.15,2013-04-11 16:44:00,
2013-04-11 12:50:00,77.2,70.9,29.98,West,270,1.0,1.0,81,0.00,,,0.00,Wunderground v.1.15,2013-04-11 16:50:00,
2013-04-11 12:55:00,77.0,70.7,29.98,West,260,1.0,1.0,81,0.00,,,0.00,Wunderground v.1.15,2013-04-11 16:55:00,
2013-04-11 13:00:00,77.2,70.5,29.97,West,266,1.0,4.0,80,0.00,,,0.00,Wunderground v.1.15,2013-04-11 17:00:00,
2013-04-11 13:06:00,77.0,70.4,29.97,WSW,252,1.0,4.0,80,0.00,,,0.00,Wunderground v.1.15,2013-04-11 17:06:00,
2013-04-11 13:11:00,76.8,70.5,29.97,WSW,256,1.0,3.0,81,0.00,,,0.00,Wunderground v.1.15,2013-04-11 17:11:00,
2013-04-11 13:17:00,76.8,70.9,29.96,SW,224,1.0,3.0,82,0.00,,,0.00,Wunderground v.1.15,2013-04-11 17:17:00,
2013-04-11 13:23:00,76.8,70.9,29.96,NW,324,0.0,1.0,82,0.00,,,0.00,Wunderground v.1.15,2013-04-11 17:23:00,
2013-04-11 13:29:00,76.7,70.8,29.96,SW,225,1.0,2.0,82,0.00,,,0.00,Wunderground v.1.15,2013-04-11 17:29:00,
2013-04-11 13:34:00,76.7,70.8,29.96,SE,140,1.0,2.0,82,0.00,,,0.00,Wunderground v.1.15,2013-04-11 17:34:00,
2013-04-11 13:39:00,76.8,70.9,29.96,ESE,104,0.0,2.0,82,0.00,,,0.00,Wunderground v.1.15,2013-04-11 17:39:00,
2013-04-11 13:45:00,76.8,70.9,29.95,West,263,0.0,3.0,82,0.00,,,0.00,Wunderground v.1.15,2013-04-11 17:45:00,
2013-04-11 13:50:00,76.8,70.9,29.95,SE,133,0.0,0.0,82,0.00,,,0.00,Wunderground v.1.15,2013-04-11 17:50:00,
2013-04-11 13:55:00,77.0,70.7,29.95,WSW,248,1.0,2.0,81,0.00,,,0.00,Wunderground v.1.15,2013-04-11 17:55:00,
2013-04-11 14:00:00,77.2,70.9,29.95,ENE,71,1.0,1.0,81,0.00,,,0.00,Wunderground v.1.15,2013-04-11 18:00:00,
2013-04-11 14:06:00,77.2,70.9,29.95,WSW,249,1.0,2.0,81,0.00,,,0.00,Wunderground v.1.15,2013-04-11 18:06:00,
2013-04-11 14:11:00,77.2,70.9,29.95,East,91,1.0,2.0,81,0.00,,,0.00,Wunderground v.1.15,2013-04-11 18:11:00,
2013-04-11 14:17:00,77.4,71.1,29.95,ENE,70,1.0,5.0,81,0.00,,,0.00,Wunderground v.1.15,2013-04-11 18:17:00,
2013-04-11 14:23:00,77.4,71.1,29.95,ENE,61,1.0,1.0,81,0.00,,,0.00,Wunderground v.1.15,2013-04-11 18:23:00,
2013-04-11 14:29:00,77.2,70.9,29.95,East,82,1.0,5.0,81,0.00,,,0.00,Wunderground v.1.15,2013-04-11 18:29:00,
2013-04-11 14:35:00,76.8,70.9,29.94,ESE,119,1.0,3.0,82,0.00,,,0.00,Wunderground v.1.15,2013-04-11 18:35:00,
2013-04-11 14:40:00,76.7,70.8,29.94,WSW,248,1.0,1.0,82,0.00,,,0.00,Wunderground v.1.15,2013-04-11 18:40:00,
2013-04-11 14:45:00,76.5,70.9,29.93,ESE,116,1.0,3.0,83,0.00,,,0.00,Wunderground v.1.15,2013-04-11 18:45:00,
2013-04-11 14:52:00,76.3,70.8,29.93,West,260,1.0,1.0,83,0.00,,,0.00,Wunderground v.1.15,2013-04-11 18:52:00,
2013-04-11 14:57:00,76.0,70.8,29.93,West,260,1.0,2.0,84,0.00,,,0.00,Wunderground v.1.15,2013-04-11 18:57:00,
2013-04-11 15:03:00,75.8,70.6,29.93,West,272,1.0,2.0,84,0.00,,,0.00,Wunderground v.1.15,2013-04-11 19:03:00,
2013-04-11 15:09:00,75.6,70.8,29.93,West,266,1.0,2.0,85,0.00,,,0.00,Wunderground v.1.15,2013-04-11 19:09:00,
2013-04-11 15:15:00,75.3,70.5,29.92,WSW,256,1.0,2.0,85,0.00,,,0.00,Wunderground v.1.15,2013-04-11 19:15:00,
2013-04-11 15:20:00,75.4,70.2,29.92,SW,233,1.0,2.0,84,0.00,,,0.00,Wunderground v.1.15,2013-04-11 19:20:00,
2013-04-11 15:25:00,75.6,70.4,29.92,WSW,249,1.0,2.0,84,0.00,,,0.00,Wunderground v.1.15,2013-04-11 19:25:00,
2013-04-11 15:31:00,76.0,70.8,29.91,ESE,118,1.0,1.0,84,0.00,,,0.00,Wunderground v.1.15,2013-04-11 19:31:00,
2013-04-11 15:37:00,76.5,70.6,29.91,East,87,1.0,2.0,82,0.00,,,0.00,Wunderground v.1.15,2013-04-11 19:37:00,
2013-04-11 15:43:00,76.7,70.4,29.91,WSW,257,1.0,2.0,81,0.00,,,0.00,Wunderground v.1.15,2013-04-11 19:43:00,
2013-04-11 15:48:00,76.7,70.4,29.90,South,170,1.0,3.0,81,0.00,,,0.00,Wunderground v.1.15,2013-04-11 19:48:00,
2013-04-11 15:54:00,76.8,70.5,29.90,ENE,74,1.0,5.0,81,0.00,,,0.00,Wunderground v.1.15,2013-04-11 19:54:00,
2013-04-11 16:00:00,77.0,70.4,29.90,West,259,1.0,2.0,80,0.00,,,0.00,Wunderground v.1.15,2013-04-11 20:00:00,
2013-04-11 16:06:00,76.8,70.5,29.90,SSW,205,1.0,2.0,81,0.00,,,0.00,Wunderground v.1.15,2013-04-11 20:06:00,
2013-04-11 16:11:00,76.8,70.5,29.90,SSE,149,1.0,2.0,81,0.00,,,0.00,Wunderground v.1.15,2013-04-11 20:11:00,
2013-04-11 16:16:00,76.7,70.4,29.89,SSW,201,1.0,2.0,81,0.00,,,0.00,Wunderground v.1.15,2013-04-11 20:16:00,
2013-04-11 16:22:00,76.5,70.6,29.89,East,85,2.0,2.0,82,0.00,,,0.00,Wunderground v.1.15,2013-04-11 20:22:00,
2013-04-11 16:28:00,76.3,70.8,29.89,WSW,250,2.0,3.0,83,0.00,,,0.00,Wunderground v.1.15,2013-04-11 20:28:00,
2013-04-11 16:33:00,76.5,70.6,29.88,WSW,255,1.0,2.0,82,0.00,,,0.00,Wunderground v.1.15,2013-04-11 20:33:00,
2013-04-11 16:39:00,76.3,70.4,29.88,WSW,257,2.0,5.0,82,0.00,,,0.00,Wunderground v.1.15,2013-04-11 20:39:00,
2013-04-11 16:45:00,76.7,70.8,29.87,WSW,250,1.0,2.0,82,0.00,,,0.00,Wunderground v.1.15,2013-04-11 20:45:00,
2013-04-11 16:50:00,77.0,70.7,29.87,SW,225,0.0,0.0,81,0.00,,,0.00,Wunderground v.1.15,2013-04-11 20:50:00,
2013-04-11 16:57:00,77.4,70.7,29.87,SW,228,1.0,2.0,80,0.00,,,0.00,Wunderground v.1.15,2013-04-11 20:57:00,
2013-04-11 17:02:00,77.2,70.2,29.87,SW,232,0.0,2.0,79,0.00,,,0.00,Wunderground v.1.15,2013-04-11 21:02:00,
2013-04-11 17:08:00,77.0,70.0,29.87,East,94,1.0,4.0,79,0.00,,,0.00,Wunderground v.1.15,2013-04-11 21:08:00,
2013-04-11 17:13:00,77.2,70.2,29.87,South,176,1.0,2.0,79,0.00,,,0.00,Wunderground v.1.15,2013-04-11 21:13:00,
2013-04-11 17:18:00,76.8,69.8,29.86,ESE,118,1.0,2.0,79,0.00,,,0.00,Wunderground v.1.15,2013-04-11 21:18:00,
2013-04-11 17:24:00,76.7,69.7,29.86,ENE,57,1.0,2.0,79,0.00,,,0.00,Wunderground v.1.15,2013-04-11 21:24:00,
2013-04-11 17:29:00,76.1,69.5,29.86,WSW,252,1.0,2.0,80,0.00,,,0.00,Wunderground v.1.15,2013-04-11 21:29:00,
2013-04-11 17:35:00,75.8,69.2,29.87,ESE,119,1.0,4.0,80,0.00,,,0.00,Wunderground v.1.15,2013-04-11 21:35:00,
2013-04-11 17:41:00,75.4,68.8,29.87,SW,225,1.0,1.0,80,0.00,,,0.00,Wunderground v.1.15,2013-04-11 21:41:00,
2013-04-11 17:46:00,75.4,69.2,29.86,ENE,75,1.0,4.0,81,0.00,,,0.00,Wunderground v.1.15,2013-04-11 21:46:00,
2013-04-11 17:52:00,75.1,69.2,29.86,West,259,1.0,1.0,82,0.00,,,0.00,Wunderground v.1.15,2013-04-11 21:52:00,
2013-04-11 17:57:00,75.1,69.2,29.86,WSW,257,0.0,2.0,82,0.00,,,0.00,Wunderground v.1.15,2013-04-11 21:57:00,
2013-04-11 18:02:00,75.1,69.2,29.86,ESE,118,1.0,2.0,82,0.00,,,0.00,Wunderground v.1.15,2013-04-11 22:02:00,
2013-04-11 18:08:00,75.1,69.6,29.86,SSE,149,0.0,2.0,83,0.00,,,0.00,Wunderground v.1.15,2013-04-11 22:08:00,
2013-04-11 18:14:00,74.9,69.4,29.86,NNE,22,0.0,1.0,83,0.00,,,0.00,Wunderground v.1.15,2013-04-11 22:14:00,
2013-04-11 18:19:00,74.7,69.2,29.86,West,274,0.0,1.0,83,0.00,,,0.00,Wunderground v.1.15,2013-04-11 22:19:00,
2013-04-11 18:24:00,74.6,69.4,29.86,NNW,339,0.0,3.0,84,0.00,,,0.00,Wunderground v.1.15,2013-04-11 22:24:00,
2013-04-11 18:30:00,74.4,69.2,29.86,ESE,116,1.0,1.0,84,0.00,,,0.00,Wunderground v.1.15,2013-04-11 22:30:00,
2013-04-11 18:35:00,74.4,69.6,29.86,East,94,1.0,1.0,85,0.00,,,0.00,Wunderground v.1.15,2013-04-11 22:35:00,
2013-04-11 18:41:00,74.2,69.4,29.86,East,82,0.0,1.0,85,0.00,,,0.00,Wunderground v.1.15,2013-04-11 22:41:00,
2013-04-11 18:47:00,74.0,69.2,29.86,South,180,1.0,2.0,85,0.00,,,0.00,Wunderground v.1.15,2013-04-11 22:47:00,
2013-04-11 18:53:00,73.9,69.4,29.86,SW,225,1.0,1.0,86,0.00,,,0.00,Wunderground v.1.15,2013-04-11 22:53:00,
2013-04-11 18:58:00,73.7,69.2,29.86,East,95,0.0,1.0,86,0.00,,,0.00,Wunderground v.1.15,2013-04-11 22:58:00,
2013-04-11 19:03:00,73.7,69.2,29.86,East,94,1.0,2.0,86,0.00,,,0.00,Wunderground v.1.15,2013-04-11 23:03:00,
2013-04-11 19:09:00,73.5,69.4,29.86,ESE,115,0.0,2.0,87,0.00,,,0.00,Wunderground v.1.15,2013-04-11 23:09:00,
2013-04-11 19:14:00,73.3,69.2,29.86,SSE,154,0.0,1.0,87,0.00,,,0.00,Wunderground v.1.15,2013-04-11 23:14:00,
2013-04-11 19:20:00,73.2,69.1,29.86,North,351,0.0,0.0,87,0.00,,,0.00,Wunderground v.1.15,2013-04-11 23:20:00,
2013-04-11 19:26:00,73.0,69.2,29.86,SE,135,0.0,1.0,88,0.00,,,0.00,Wunderground v.1.15,2013-04-11 23:26:00,
2013-04-11 19:31:00,73.0,69.2,29.85,ENE,71,0.0,0.0,88,0.00,,,0.00,Wunderground v.1.15,2013-04-11 23:31:00,
2013-04-11 19:37:00,72.8,69.4,29.85,SSW,201,0.0,1.0,89,0.00,,,0.00,Wunderground v.1.15,2013-04-11 23:37:00,
2013-04-11 19:43:00,72.7,69.3,29.85,SSE,160,0.0,1.0,89,0.00,,,0.00,Wunderground v.1.15,2013-04-11 23:43:00,
2013-04-11 19:48:00,72.5,69.1,29.86,SSE,150,0.0,1.0,89,0.00,,,0.00,Wunderground v.1.15,2013-04-11 23:48:00,
2013-04-11 19:54:00,72.5,69.1,29.86,East,87,0.0,3.0,89,0.00,,,0.00,Wunderground v.1.15,2013-04-11 23:54:00,
2013-04-11 19:59:00,72.3,68.9,29.86,ESE,121,0.0,3.0,89,0.00,,,0.00,Wunderground v.1.15,2013-04-11 23:59:00,
2013-04-11 20:04:00,72.1,69.0,29.85,SE,139,0.0,1.0,90,0.00,,,0.00,Wunderground v.1.15,2013-04-12 00:04:00,
2013-04-11 20:09:00,72.1,69.0,29.85,South,183,1.0,3.0,90,0.00,,,0.00,Wunderground v.1.15,2013-04-12 00:09:00,
2013-04-11 20:14:00,72.0,68.9,29.85,ENE,60,0.0,1.0,90,0.00,,,0.00,Wunderground v.1.15,2013-04-12 00:14:00,
2013-04-11 20:19:00,72.0,69.2,29.85,SE,126,0.0,8.0,91,0.00,,,0.00,Wunderground v.1.15,2013-04-12 00:19:00,
2013-04-11 20:24:00,72.0,69.2,29.85,ESE,112,0.0,1.0,91,0.00,,,0.00,Wunderground v.1.15,2013-04-12 00:24:00,
2013-04-11 20:29:00,72.0,69.2,29.85,South,169,0.0,3.0,91,0.00,,,0.00,Wunderground v.1.15,2013-04-12 00:29:00,
2013-04-11 20:34:00,72.0,69.2,29.85,SE,135,0.0,2.0,91,0.00,,,0.00,Wunderground v.1.15,2013-04-12 00:34:00,
2013-04-11 20:39:00,72.0,68.9,29.85,SSE,163,0.0,2.0,90,0.00,,,0.00,Wunderground v.1.15,2013-04-12 00:39:00,
2013-04-11 20:44:00,72.0,68.9,29.84,SE,146,0.0,7.0,90,0.00,,,0.00,Wunderground v.1.15,2013-04-12 00:44:00,
2013-04-11 20:49:00,72.0,68.9,29.84,NE,43,0.0,7.0,90,0.00,,,0.00,Wunderground v.1.15,2013-04-12 00:49:00,
2013-04-11 20:54:00,72.0,68.9,29.84,SSE,157,0.0,5.0,90,0.00,,,0.00,Wunderground v.1.15,2013-04-12 00:54:00,
2013-04-11 20:59:00,72.0,68.6,29.84,NE,39,0.0,5.0,89,0.00,,,0.00,Wunderground v.1.15,2013-04-12 00:59:00,
2013-04-11 21:04:00,72.0,68.6,29.84,ESE,108,1.0,3.0,89,0.00,,,0.00,Wunderground v.1.15,2013-04-12 01:04:00,
2013-04-11 21:09:00,72.0,68.6,29.84,ENE,73,1.0,3.0,89,0.00,,,0.00,Wunderground v.1.15,2013-04-12 01:09:00,
2013-04-11 21:14:00,72.0,68.6,29.84,SE,142,0.0,2.0,89,0.00,,,0.00,Wunderground v.1.15,2013-04-12 01:14:00,
2013-04-11 21:19:00,72.0,68.6,29.84,SW,225,0.0,2.0,89,0.00,,,0.00,Wunderground v.1.15,2013-04-12 01:19:00,
2013-04-11 21:24:00,72.0,68.6,29.84,North,2,0.0,2.0,89,0.00,,,0.00,Wunderground v.1.15,2013-04-12 01:24:00,
2013-04-11 21:29:00,72.0,68.6,29.85,SSE,167,0.0,3.0,89,0.00,,,0.00,Wunderground v.1.15,2013-04-12 01:29:00,
2013-04-11 21:35:00,72.0,68.6,29.85,SSE,166,0.0,1.0,89,0.00,,,0.00,Wunderground v.1.15,2013-04-12 01:35:00,
2013-04-11 21:40:00,72.0,68.6,29.85,NW,305,1.0,1.0,89,0.00,,,0.00,Wunderground v.1.15,2013-04-12 01:40:00,
2013-04-11 21:45:00,72.0,68.9,29.84,South,176,0.0,9.0,90,0.00,,,0.00,Wunderground v.1.15,2013-04-12 01:45:00,
2013-04-11 21:50:00,72.0,68.9,29.84,SE,133,1.0,4.0,90,0.00,,,0.00,Wunderground v.1.15,2013-04-12 01:50:00,
2013-04-11 21:55:00,72.0,68.9,29.84,NE,41,0.0,4.0,90,0.00,,,0.00,Wunderground v.1.15,2013-04-12 01:55:00,
2013-04-11 22:00:00,72.0,68.9,29.84,West,274,0.0,1.0,90,0.00,,,0.00,Wunderground v.1.15,2013-04-12 02:00:00,
2013-04-11 22:05:00,71.8,68.7,29.84,ESE,123,1.0,4.0,90,0.00,,,0.00,Wunderground v.1.15,2013-04-12 02:05:00,
2013-04-11 22:10:00,71.8,69.0,29.84,SSW,205,2.0,2.0,91,0.00,,,0.00,Wunderground v.1.15,2013-04-12 02:10:00,
2013-04-11 22:15:00,72.0,69.2,29.83,ESE,108,2.0,9.0,91,0.00,,,0.00,Wunderground v.1.15,2013-04-12 02:15:00,
2013-04-11 22:20:00,72.0,69.2,29.83,SE,143,0.0,1.0,91,0.00,,,0.00,Wunderground v.1.15,2013-04-12 02:20:00,
2013-04-11 22:25:00,72.0,69.2,29.83,SSW,208,0.0,7.0,91,0.00,,,0.00,Wunderground v.1.15,2013-04-12 02:25:00,
2013-04-11 22:30:00,71.8,69.0,29.83,ESE,111,0.0,1.0,91,0.00,,,0.00,Wunderground v.1.15,2013-04-12 02:30:00,
2013-04-11 22:35:00,71.8,69.0,29.83,ENE,75,0.0,3.0,91,0.00,,,0.00,Wunderground v.1.15,2013-04-12 02:35:00,
2013-04-11 22:40:00,71.8,69.0,29.83,SE,137,0.0,2.0,91,0.00,,,0.00,Wunderground v.1.15,2013-04-12 02:40:00,
2013-04-11 22:45:00,71.8,69.0,29.83,East,84,0.0,7.0,91,0.00,,,0.00,Wunderground v.1.15,2013-04-12 02:45:00,
2013-04-11 22:50:00,71.8,69.0,29.83,NE,49,0.0,1.0,91,0.00,,,0.00,Wunderground v.1.15,2013-04-12 02:50:00,
2013-04-11 22:55:00,71.6,68.8,29.83,West,259,1.0,8.0,91,0.00,,,0.00,Wunderground v.1.15,2013-04-12 02:55:00,
2013-04-11 23:00:00,71.6,68.8,29.84,South,178,0.0,6.0,91,0.00,,,0.00,Wunderground v.1.15,2013-04-12 03:00:00,
2013-04-11 23:05:00,71.6,68.8,29.84,SE,125,0.0,6.0,91,0.00,,,0.00,Wunderground v.1.15,2013-04-12 03:05:00,
2013-04-11 23:11:00,71.6,68.8,29.84,ESE,111,1.0,6.0,91,0.00,,,0.00,Wunderground v.1.15,2013-04-12 03:11:00,
2013-04-11 23:16:00,71.5,68.7,29.83,SSW,200,2.0,6.0,91,0.00,,,0.00,Wunderground v.1.15,2013-04-12 03:16:00,
2013-04-11 23:21:00,71.5,68.7,29.83,WSW,255,0.0,2.0,91,0.00,,,0.00,Wunderground v.1.15,2013-04-12 03:21:00,
2013-04-11 23:26:00,71.5,68.7,29.83,SSE,149,1.0,9.0,91,0.00,,,0.00,Wunderground v.1.15,2013-04-12 03:26:00,
2013-04-11 23:31:00,71.5,68.7,29.84,SSE,160,2.0,4.0,91,0.00,,,0.00,Wunderground v.1.15,2013-04-12 03:31:00,
2013-04-11 23:36:00,71.5,68.7,29.84,SE,132,2.0,8.0,91,0.00,,,0.00,Wunderground v.1.15,2013-04-12 03:36:00,
2013-04-11 23:41:00,71.5,68.7,29.84,ESE,106,2.0,6.0,91,0.00,,,0.00,Wunderground v.1.15,2013-04-12 03:41:00,
2013-04-11 23:46:00,71.5,68.7,29.84,ESE,112,2.0,6.0,91,0.00,,,0.00,Wunderground v.1.15,2013-04-12 03:46:00,
2013-04-11 23:51:00,71.5,68.7,29.84,NE,49,4.0,4.0,91,0.00,,,0.00,Wunderground v.1.15,2013-04-12 03:51:00,
2013-04-11 23:56:00,71.5,68.7,29.84,West,273,0.0,5.0,91,0.00,,,0.00,Wunderground v.1.15,2013-04-12 03:56:00,